Time;durP1;ratioP1;P1;durP2;ratioP2;P2;SDS_P1;SDS_P2;PMS_P1;PMS_P2;Temp;Humidity;BMP_temperature;BMP_pressure;BME280_temperature;BME280_humidity;BME280_pressure;Samples;Min_cycle;Max_cycle;Signal;HPM_P1;HPM_P2
2021/12/16 00:07:45;;;;;;;;;48.33;41.00;;;;;9.18;100.00;103186.28;5026156;28;45553;-79
2021/12/16 00:10:23;;;;;;;;;39.67;34.67;;;;;9.14;100.00;103185.50;5020356;28;44683;-80
2021/12/16 00:34:54;;;;;;;;;49.00;40.00;;;;;9.13;100.00;103182.88;5035127;28;45391;-81
2021/12/16 00:37:20;;;;;;;;;46.67;35.67;;;;;9.10;100.00;103182.94;5036379;28;45583;-80
2021/12/16 00:39:46;;;;;;;;;45.00;36.67;;;;;9.13;100.00;103183.72;5039022;28;45427;-79
2021/12/16 00:42:27;;;;;;;;;51.00;40.67;;;;;9.13;100.00;103183.72;5037552;28;44785;-80
2021/12/16 00:45:22;;;;;;;;;42.33;34.00;;;;;9.14;100.00;103182.84;5034240;28;45426;-79
2021/12/16 00:47:59;;;;;;;;;42.67;35.00;;;;;9.17;100.00;103179.25;5017570;28;45357;-80
2021/12/16 00:58:12;;;;;;;;;46.33;36.33;;;;;9.16;100.00;103177.50;5034311;28;45353;-80
2021/12/16 01:00:39;;;;;;;;;47.67;38.00;;;;;9.16;100.00;103180.16;5033959;28;44848;-78
2021/12/16 01:03:17;;;;;;;;;49.00;37.67;;;;;9.17;100.00;103174.81;5034008;28;44933;-79
2021/12/16 01:57:20;;;;;;;;;46.67;37.00;;;;;9.15;100.00;103187.25;5015785;28;45277;-80
2021/12/16 01:59:56;;;;;;;;;48.33;37.00;;;;;9.17;100.00;103188.06;5015460;28;45463;-80
2021/12/16 02:05:10;;;;;;;;;45.67;35.33;;;;;9.22;100.00;103193.28;5018513;28;45367;-80
2021/12/16 02:10:28;;;;;;;;;46.67;38.33;;;;;9.25;100.00;103191.44;5022919;28;45361;-80
2021/12/16 02:31:55;;;;;;;;;54.33;44.67;;;;;9.26;100.00;103195.81;5018836;28;45006;-79
2021/12/16 02:34:28;;;;;;;;;54.00;43.00;;;;;9.29;100.00;103188.72;5018635;28;45534;-80
2021/12/16 02:36:54;;;;;;;;;64.33;46.00;;;;;9.29;100.00;103181.63;5018806;28;44828;-80
2021/12/16 02:39:31;;;;;;;;;65.67;49.67;;;;;9.33;100.00;103193.94;5018676;28;44817;-80
2021/12/16 02:42:03;;;;;;;;;78.33;59.67;;;;;9.35;100.00;103193.88;5033730;28;45425;-79
2021/12/16 02:49:51;;;;;;;;;70.33;54.00;;;;;9.31;100.00;103185.13;5018359;28;45293;-79
2021/12/16 02:52:19;;;;;;;;;74.00;56.00;;;;;9.31;100.00;103197.50;5018402;28;45435;-79
2021/12/16 02:54:45;;;;;;;;;68.33;52.33;;;;;9.32;100.00;103189.50;5017947;28;44822;-79
2021/12/16 02:57:11;;;;;;;;;68.00;53.00;;;;;9.34;100.00;103195.66;5018608;28;45493;-79
2021/12/16 02:59:42;;;;;;;;;65.33;50.67;;;;;9.29;100.00;103186.94;5019222;28;45360;-79
2021/12/16 03:02:14;;;;;;;;;65.00;51.33;;;;;9.27;100.00;103188.75;5022860;28;45058;-80
2021/12/16 03:04:42;;;;;;;;;65.00;49.00;;;;;9.29;100.00;103194.03;5018739;28;44674;-79
2021/12/16 03:07:12;;;;;;;;;66.00;49.67;;;;;9.32;100.00;103193.94;5018518;28;45244;-79
2021/12/16 03:12:35;;;;;;;;;66.67;50.33;;;;;9.35;100.00;103186.81;5019047;28;45389;-81
2021/12/16 03:14:58;;;;;;;;;56.67;46.67;;;;;9.37;100.00;103190.28;5018193;28;45411;-79
2021/12/16 03:20:06;;;;;;;;;53.00;43.33;;;;;9.39;100.00;103187.63;5019909;28;45301;-78
2021/12/16 03:22:55;;;;;;;;;54.67;45.00;;;;;9.40;100.00;103194.66;5019262;28;45424;-79
2021/12/16 03:38:54;;;;;;;;;40.00;34.67;;;;;9.44;100.00;103202.50;5017714;28;44754;-80
2021/12/16 03:41:20;;;;;;;;;46.00;36.00;;;;;9.46;100.00;103195.38;5017099;28;45146;-80
2021/12/16 03:43:47;;;;;;;;;45.00;38.67;;;;;9.44;100.00;103193.69;5015853;28;45390;-79
2021/12/16 03:46:27;;;;;;;;;49.67;39.67;;;;;9.40;100.00;103184.91;5018423;28;44814;-78
2021/12/16 03:49:11;;;;;;;;;45.33;36.67;;;;;9.45;100.00;103192.78;5018546;28;45413;-80
2021/12/16 03:51:38;;;;;;;;;48.67;37.67;;;;;9.48;100.00;103196.22;5033684;28;45398;-80
2021/12/16 03:54:26;;;;;;;;;50.00;40.33;;;;;9.47;100.00;103191.81;5017660;28;45252;-79
2021/12/16 03:56:55;;;;;;;;;42.00;34.33;;;;;9.47;100.00;103190.94;5017300;28;45531;-79
2021/12/16 03:59:25;;;;;;;;;37.67;33.00;;;;;9.49;100.00;103197.09;5017961;28;45340;-79
2021/12/16 04:01:53;;;;;;;;;38.00;34.33;;;;;9.52;100.00;103195.25;5018648;28;45250;-79
2021/12/16 04:04:19;;;;;;;;;45.00;37.00;;;;;9.53;100.00;103199.66;5021126;28;45383;-80
2021/12/16 04:06:44;;;;;;;;;43.67;35.67;;;;;9.57;100.00;103192.47;5022911;28;44668;-78
2021/12/16 04:09:13;;;;;;;;;39.33;33.33;;;;;9.59;100.00;103193.31;5017254;28;45430;-80
2021/12/16 04:11:44;;;;;;;;;47.00;38.00;;;;;9.59;100.00;103195.97;5017543;28;45557;-78
2021/12/16 04:14:13;;;;;;;;;35.67;32.33;;;;;9.60;100.00;103195.06;5017921;28;45368;-78
2021/12/16 04:16:45;;;;;;;;;39.33;34.33;;;;;9.59;100.00;103198.63;5017539;28;44714;-79
2021/12/16 04:19:13;;;;;;;;;43.00;34.33;;;;;9.60;100.00;103197.72;5017882;28;45409;-80
2021/12/16 04:21:46;;;;;;;;;43.33;33.33;;;;;9.59;100.00;103192.47;5017234;28;45387;-81
2021/12/16 04:24:12;;;;;;;;;36.67;30.33;;;;;9.62;100.00;103195.00;5018542;28;45435;-79
2021/12/16 04:26:40;;;;;;;;;44.00;35.33;;;;;9.64;100.00;103198.53;5018370;28;44714;-79
2021/12/16 04:29:06;;;;;;;;;35.67;32.67;;;;;9.67;100.00;103193.13;5018527;28;45249;-79
2021/12/16 04:31:34;;;;;;;;;40.33;34.33;;;;;9.69;100.00;103196.63;5016303;28;45179;-79
2021/12/16 04:34:00;;;;;;;;;37.67;31.33;;;;;9.70;100.00;103206.34;5017826;28;46695;-80
2021/12/16 04:36:26;;;;;;;;;38.33;33.00;;;;;9.71;100.00;103203.63;5018781;28;44788;-81
2021/12/16 04:38:53;;;;;;;;;36.33;31.33;;;;;9.73;100.00;103211.59;5019292;28;45422;-81
2021/12/16 04:41:20;;;;;;;;;39.25;32.25;;;;;9.73;100.00;103214.25;5016637;28;45570;-81
2021/12/16 04:43:51;;;;;;;;;31.67;29.33;;;;;9.75;100.00;103207.97;5016684;28;45356;-78
2021/12/16 04:46:21;;;;;;;;;38.33;32.00;;;;;9.75;100.00;103201.78;5020565;28;45525;-78
2021/12/16 04:48:50;;;;;;;;;36.00;31.00;;;;;9.74;100.00;103215.97;5018363;28;45305;-79
2021/12/16 04:51:17;;;;;;;;;44.33;34.00;;;;;9.73;100.00;103206.28;5017321;28;44804;-79
2021/12/16 04:53:43;;;;;;;;;37.67;32.00;;;;;9.74;100.00;103210.66;5016528;28;45486;-78
2021/12/16 04:56:12;;;;;;;;;42.67;31.00;;;;;9.76;100.00;103211.50;5020301;28;45367;-80
2021/12/16 04:58:40;;;;;;;;;38.67;32.67;;;;;9.72;100.00;103215.16;5025975;28;44821;-81
2021/12/16 05:01:05;;;;;;;;;39.00;33.00;;;;;9.70;100.00;103216.97;5026690;28;44897;-82
2021/12/16 05:03:32;;;;;;;;;33.67;28.67;;;;;9.73;100.00;103220.41;5027085;28;45201;-82
2021/12/16 05:05:58;;;;;;;;;36.33;31.00;;;;;9.77;100.00;103221.22;5026888;28;44802;-82
2021/12/16 05:08:27;;;;;;;;;39.67;34.00;;;;;9.79;100.00;103222.91;5027863;28;45238;-83
2021/12/16 05:10:55;;;;;;;;;39.67;32.33;;;;;9.78;100.00;103222.97;5029767;28;45332;-80
2021/12/16 05:13:24;;;;;;;;;37.75;32.00;;;;;9.73;100.00;103219.53;5029958;28;44994;-81
2021/12/16 05:15:51;;;;;;;;;40.33;33.00;;;;;9.74;100.00;103214.19;5025471;28;44711;-80
2021/12/16 05:18:25;;;;;;;;;34.00;31.00;;;;;9.79;100.00;103224.69;5025685;28;44789;-79
2021/12/16 05:20:51;;;;;;;;;40.67;33.00;;;;;9.79;100.00;103224.69;5026675;28;45226;-79
2021/12/16 05:28:44;;;;;;;;;42.67;33.67;;;;;9.84;100.00;103216.63;5023722;28;45374;-80
2021/12/16 05:31:11;;;;;;;;;43.00;33.33;;;;;9.85;100.00;103218.38;5021204;28;44704;-80
2021/12/16 05:33:36;;;;;;;;;31.67;30.33;;;;;9.82;100.00;103224.66;5023001;28;45380;-80
2021/12/16 05:36:02;;;;;;;;;42.33;33.00;;;;;9.80;100.00;103223.78;5023662;28;44854;-81
2021/12/16 05:38:29;;;;;;;;;35.33;31.00;;;;;9.81;100.00;103217.56;5022076;28;44801;-80
2021/12/16 05:40:57;;;;;;;;;39.67;33.00;;;;;9.85;100.00;103235.16;5018445;28;44936;-80
2021/12/16 05:43:24;;;;;;;;;43.67;33.33;;;;;9.86;100.00;103233.38;5033234;28;45061;-80
2021/12/16 05:45:53;;;;;;;;;44.00;37.67;;;;;9.86;100.00;103236.91;5041423;28;44733;-80
2021/12/16 05:48:22;;;;;;;;;38.33;34.00;;;;;9.88;100.00;103235.09;5044193;28;44735;-80
2021/12/16 05:50:52;;;;;;;;;37.00;32.33;;;;;9.90;100.00;103241.25;5042374;28;44899;-80
2021/12/16 05:53:19;;;;;;;;;41.67;36.00;;;;;9.91;100.00;103231.50;5045340;28;45186;-79
2021/12/16 05:55:45;;;;;;;;;42.00;33.67;;;;;9.97;100.00;103231.38;5045766;28;44887;-78
2021/12/16 05:58:17;;;;;;;;;40.67;32.00;;;;;10.00;100.00;103241.91;5044058;28;44904;-82
2021/12/16 06:00:44;;;;;;;;;42.00;33.00;;;;;9.99;100.00;103245.47;5039230;28;45229;-81
2021/12/16 06:03:10;;;;;;;;;40.00;33.00;;;;;9.99;100.00;103249.00;5040994;28;45491;-83
2021/12/16 06:05:36;;;;;;;;;38.67;34.00;;;;;9.99;100.00;103251.66;5035512;28;45302;-79
2021/12/16 06:08:02;;;;;;;;;39.00;34.00;;;;;9.98;100.00;103252.56;5035529;28;44712;-80
2021/12/16 06:12:53;;;;;;;;;44.33;33.00;;;;;9.99;100.00;103262.28;5036172;28;45132;-80
2021/12/16 06:15:39;;;;;;;;;38.67;33.33;;;;;9.99;100.00;103258.75;5035375;28;45253;-81
2021/12/16 06:28:51;;;;;;;;;43.33;34.00;;;;;10.02;100.00;103248.94;5039309;28;45439;-81
2021/12/16 06:31:16;;;;;;;;;40.33;34.00;;;;;10.04;100.00;103251.53;5039058;28;44905;-81
2021/12/16 06:33:42;;;;;;;;;44.33;37.00;;;;;10.04;100.00;103246.22;5038543;28;45469;-82
2021/12/16 06:36:08;;;;;;;;;44.00;36.00;;;;;10.04;100.00;103255.06;5039913;28;45306;-80
2021/12/16 06:38:34;;;;;;;;;42.00;33.67;;;;;10.05;100.00;103254.16;5036795;28;45482;-82
2021/12/16 06:40:59;;;;;;;;;37.67;33.00;;;;;10.07;100.00;103262.09;5035555;28;45293;-81
2021/12/16 06:43:25;;;;;;;;;40.33;35.67;;;;;10.07;100.00;103261.22;5024000;28;45144;-81
2021/12/16 06:45:51;;;;;;;;;46.67;35.67;;;;;10.07;100.00;103261.22;5015505;28;45240;-81
2021/12/16 06:48:22;;;;;;;;;49.33;39.33;;;;;10.10;100.00;103255.81;5014966;28;45449;-81
2021/12/16 06:53:25;;;;;;;;;39.50;35.75;;;;;10.13;100.00;103261.06;5018598;28;45107;-79
2021/12/16 06:56:07;;;;;;;;;38.00;33.67;;;;;10.13;100.00;103264.59;5019319;28;45456;-80
2021/12/16 07:01:17;;;;;;;;;44.00;36.33;;;;;10.16;100.00;103269.84;5018618;28;44829;-82
2021/12/16 07:03:47;;;;;;;;;47.67;38.33;;;;;10.19;100.00;103274.19;5018386;28;45455;-81
2021/12/16 07:06:15;;;;;;;;;44.00;34.00;;;;;10.20;100.00;103268.88;5021918;28;44861;-80
2021/12/16 07:08:44;;;;;;;;;48.67;37.33;;;;;10.20;100.00;103275.94;5023244;28;44758;-80
2021/12/16 07:11:09;;;;;;;;;39.67;34.67;;;;;10.19;100.00;103269.75;5020682;28;44797;-80
2021/12/16 07:13:40;;;;;;;;;46.33;37.67;;;;;10.17;100.00;103271.59;5018866;28;45368;-83
2021/12/16 07:16:05;;;;;;;;;47.00;38.33;;;;;10.16;100.00;103279.59;5018466;28;44831;-80
2021/12/16 07:18:30;;;;;;;;;38.67;33.67;;;;;10.15;100.00;103289.31;5018458;28;45288;-82
2021/12/16 07:20:56;;;;;;;;;43.67;36.00;;;;;10.12;100.00;103284.09;5018684;28;45244;-82
2021/12/16 07:23:22;;;;;;;;;46.67;38.00;;;;;10.12;100.00;103283.25;5018761;28;45404;-81
2021/12/16 07:25:48;;;;;;;;;40.00;36.00;;;;;10.11;100.00;103289.47;5019082;28;45471;-80
2021/12/16 07:28:14;;;;;;;;;50.67;41.00;;;;;10.10;100.00;103285.91;5020030;28;45301;-80
2021/12/16 07:30:44;;;;;;;;;45.00;35.67;;;;;10.10;100.00;103283.25;5021350;28;45017;-82
2021/12/16 07:33:12;;;;;;;;;46.67;39.00;;;;;10.11;100.00;103286.81;5021624;28;45262;-81
2021/12/16 07:35:39;;;;;;;;;52.67;40.67;;;;;10.12;100.00;103292.06;5017661;28;45352;-81
2021/12/16 07:38:06;;;;;;;;;46.67;36.67;;;;;10.13;100.00;103299.13;5018288;28;45300;-82
2021/12/16 07:40:33;;;;;;;;;50.00;39.67;;;;;10.14;100.00;103287.59;5018420;28;44767;-82
2021/12/16 07:45:28;;;;;;;;;47.33;37.00;;;;;10.14;100.00;103298.22;5024160;28;45408;-81
2021/12/16 07:47:54;;;;;;;;;46.33;37.00;;;;;10.16;100.00;103293.75;5018942;28;45303;-80
2021/12/16 07:50:21;;;;;;;;;40.67;34.00;;;;;10.17;100.00;103290.19;5017425;28;44964;-81
2021/12/16 07:52:46;;;;;;;;;48.00;40.00;;;;;10.19;100.00;103295.44;5016246;28;45351;-81
2021/12/16 07:55:15;;;;;;;;;41.67;36.33;;;;;10.22;100.00;103290.06;5017866;28;45344;-81
2021/12/16 07:57:40;;;;;;;;;41.00;33.33;;;;;10.19;100.00;103291.00;5018501;28;45363;-81
2021/12/16 08:00:16;;;;;;;;;42.67;34.00;;;;;10.19;100.00;103293.66;5016692;28;44774;-80
2021/12/16 08:02:41;;;;;;;;;44.00;34.00;;;;;10.17;100.00;103291.97;5018075;28;45251;-83
2021/12/16 08:05:08;;;;;;;;;43.67;35.00;;;;;10.20;100.00;103299.84;5018653;28;44820;-82
2021/12/16 08:07:34;;;;;;;;;43.67;36.33;;;;;10.21;100.00;103291.84;5019864;28;44778;-81
2021/12/16 08:10:00;;;;;;;;;40.33;33.00;;;;;10.23;100.00;103315.72;5018171;28;45574;-81
2021/12/16 08:12:26;;;;;;;;;38.67;34.00;;;;;10.24;100.00;103307.72;5017120;28;45487;-82
2021/12/16 08:14:51;;;;;;;;;40.67;35.67;;;;;10.25;100.00;103311.25;5017570;28;45331;-83
2021/12/16 08:17:18;;;;;;;;;48.33;35.33;;;;;10.30;100.00;103314.72;5020685;28;45341;-83
2021/12/16 08:19:45;;;;;;;;;39.33;34.33;;;;;10.29;100.00;103313.81;5021855;28;44817;-83
2021/12/16 08:22:12;;;;;;;;;47.00;36.67;;;;;10.34;100.00;103308.38;5022696;28;46666;-83
2021/12/16 08:24:38;;;;;;;;;40.00;35.67;;;;;10.40;100.00;103318.00;5024069;28;45318;-82
2021/12/16 08:27:04;;;;;;;;;39.67;33.67;;;;;10.43;100.00;103309.94;5016894;28;44707;-82
2021/12/16 08:29:31;;;;;;;;;45.33;37.67;;;;;10.43;100.00;103312.59;5021681;28;45000;-82
2021/12/16 08:31:56;;;;;;;;;45.33;37.00;;;;;10.45;100.00;103310.78;5017768;28;45208;-82
2021/12/16 08:34:22;;;;;;;;;42.67;36.33;;;;;10.46;100.00;103310.75;5019744;28;45671;-82
2021/12/16 08:36:48;;;;;;;;;41.67;36.00;;;;;10.46;100.00;103318.72;5021335;28;45303;-81
2021/12/16 08:39:13;;;;;;;;;37.00;33.67;;;;;10.48;100.00;103311.56;5017217;28;45754;-81
2021/12/16 08:41:43;;;;;;;;;36.33;33.00;;;;;10.48;100.00;103318.69;5015977;28;45222;-81
2021/12/16 08:44:09;;;;;;;;;41.00;34.00;;;;;10.49;100.00;103317.75;5016468;28;44830;-81
2021/12/16 08:46:37;;;;;;;;;36.33;34.00;;;;;10.48;100.00;103324.00;5016586;28;45529;-81
2021/12/16 08:49:04;;;;;;;;;41.00;32.67;;;;;10.48;100.00;103324.84;5016791;28;45462;-81
2021/12/16 08:51:33;;;;;;;;;40.00;34.00;;;;;10.52;100.00;103325.66;5016587;28;45249;-82
2021/12/16 08:53:59;;;;;;;;;45.67;37.00;;;;;10.53;100.00;103328.28;5019242;28;45377;-82
2021/12/16 08:56:27;;;;;;;;;45.67;37.00;;;;;10.55;100.00;103321.16;5020782;28;45247;-82
2021/12/16 08:58:56;;;;;;;;;37.33;32.00;;;;;10.62;100.00;103318.31;5023865;28;45011;-82
2021/12/16 09:01:26;;;;;;;;;45.00;37.00;;;;;10.65;100.00;103329.75;5020448;28;45382;-81
2021/12/16 09:03:53;;;;;;;;;42.00;36.33;;;;;10.67;100.00;103324.41;5025348;28;44884;-80
2021/12/16 09:06:20;;;;;;;;;36.67;33.33;;;;;10.69;100.00;103330.56;5028131;28;44782;-82
2021/12/16 09:08:46;;;;;;;;;51.67;36.33;;;;;10.76;100.00;103335.66;5026993;28;44904;-81
2021/12/16 09:11:19;;;;;;;;;46.00;37.33;;;;;10.79;100.00;103335.59;5031832;28;45205;-81
2021/12/16 09:13:44;;;;;;;;;41.33;33.67;;;;;10.79;100.00;103330.28;5024177;28;45243;-81
2021/12/16 09:16:15;;;;;;;;;40.33;35.00;;;;;10.84;100.00;103339.94;5016984;28;45331;-81
2021/12/16 09:18:42;;;;;;;;;44.33;35.33;;;;;10.88;100.00;103337.16;5017106;28;44735;-81
2021/12/16 09:21:11;;;;;;;;;35.33;26.33;;;;;10.92;100.00;103335.25;5017142;28;45412;-81
2021/12/16 09:23:38;;;;;;;;;43.67;36.33;;;;;10.92;100.00;103345.91;5016524;28;44919;-82
2021/12/16 09:26:04;;;;;;;;;38.67;28.00;;;;;10.94;100.00;103341.44;5021817;28;44834;-82
2021/12/16 09:28:30;;;;;;;;;31.00;30.00;;;;;10.92;100.00;103344.09;5020949;28;45497;-82
2021/12/16 09:30:56;;;;;;;;;43.67;36.00;;;;;10.94;100.00;103347.63;5017333;28;45334;-82
2021/12/16 09:33:24;;;;;;;;;40.33;34.00;;;;;10.99;100.00;103347.50;5020780;28;45355;-79
2021/12/16 09:35:54;;;;;;;;;45.67;35.00;;;;;11.02;100.00;103345.63;5021704;28;44808;-82
2021/12/16 09:38:22;;;;;;;;;45.67;36.67;;;;;11.03;100.00;103358.00;5015986;28;45554;-81
2021/12/16 09:40:53;;;;;;;;;42.67;35.00;;;;;11.02;100.00;103345.63;5015112;28;45447;-82
2021/12/16 09:43:30;;;;;;;;;42.33;36.33;;;;;11.07;100.00;103353.47;5015328;28;44987;-81
2021/12/16 09:45:59;;;;;;;;;38.50;33.50;;;;;11.06;100.00;103363.22;5006993;28;45399;-81
2021/12/16 09:48:26;;;;;;;;;38.33;33.67;;;;;11.12;100.00;103359.56;5014858;28;44836;-80
2021/12/16 09:50:53;;;;;;;;;35.00;28.75;;;;;11.15;100.00;103358.59;5015435;28;45274;-81
2021/12/16 09:53:19;;;;;;;;;37.00;32.00;;;;;11.13;100.00;103360.44;5015809;28;44898;-81
2021/12/16 09:55:50;;;;;;;;;40.00;33.00;;;;;11.14;100.00;103371.03;5015152;28;44948;-83
2021/12/16 09:58:16;;;;;;;;;37.25;30.00;;;;;11.13;100.00;103368.41;5016054;28;44949;-83
2021/12/16 10:00:41;;;;;;;;;42.50;33.00;;;;;11.15;100.00;103370.09;5016210;28;45385;-82
2021/12/16 10:03:07;;;;;;;;;40.67;34.67;;;;;11.17;100.00;103367.38;5016355;28;44795;-83
2021/12/16 10:05:34;;;;;;;;;36.67;33.67;;;;;11.21;100.00;103364.59;5015605;28;45608;-82
2021/12/16 10:08:02;;;;;;;;;37.67;31.67;;;;;11.20;100.00;103369.97;5016371;28;45380;-82
2021/12/16 10:10:28;;;;;;;;;37.50;31.75;;;;;11.23;100.00;103376.09;5021587;28;45214;-82
2021/12/16 10:12:58;;;;;;;;;40.67;35.00;;;;;11.26;100.00;103377.78;5018313;28;45421;-83
2021/12/16 10:18:26;;;;;;;;;40.00;34.00;;;;;11.29;100.00;103377.72;5016010;28;45455;-85
2021/12/16 10:20:59;;;;;;;;;37.33;33.00;;;;;11.30;100.00;103368.81;5014630;28;45347;-83
2021/12/16 10:23:36;;;;;;;;;38.75;33.00;;;;;11.34;100.00;103373.13;5015415;28;45322;-85
2021/12/16 10:26:07;;;;;;;;;32.67;29.00;;;;;11.35;100.00;103366.88;5017643;28;44761;-83
2021/12/16 10:28:41;;;;;;;;;34.00;29.00;;;;;11.38;100.00;103363.28;5021715;28;45130;-84
2021/12/16 10:31:10;;;;;;;;;30.67;27.33;;;;;11.39;100.00;103365.03;5011105;28;45591;-84
2021/12/16 10:33:40;;;;;;;;;36.00;30.00;;;;;11.42;100.00;103363.16;5017291;28;45447;-84
2021/12/16 10:36:08;;;;;;;;;33.75;31.50;;;;;11.44;100.00;103363.97;5019916;28;45154;-86
2021/12/16 10:38:41;;;;;;;;;34.25;30.25;;;;;11.44;100.00;103363.97;5021077;28;45185;-86
2021/12/16 10:41:11;;;;;;;;;40.50;34.50;;;;;11.49;100.00;103370.03;5022352;28;45383;-87
2021/12/16 10:43:44;;;;;;;;;37.75;30.00;;;;;11.47;100.00;103366.56;5030735;28;44825;-85
2021/12/16 10:46:17;;;;;;;;;36.67;32.67;;;;;11.47;100.00;103374.53;5018134;28;45228;-85
2021/12/16 10:48:47;;;;;;;;;36.00;32.33;;;;;11.47;100.00;103369.22;5033552;28;44699;-85
2021/12/16 10:51:23;;;;;;;;;38.67;34.33;;;;;11.51;100.00;103365.56;5030063;28;45080;-84
2021/12/16 10:54:08;;;;;;;;;38.00;33.67;;;;;11.55;100.00;103369.84;5030027;28;44718;-84
2021/12/16 10:56:56;;;;;;;;;34.00;30.00;;;;;11.57;100.00;103372.50;5021319;28;45443;-85
2021/12/16 10:59:30;;;;;;;;;43.33;35.33;;;;;11.59;100.00;103363.53;5018943;28;45252;-84
2021/12/16 11:02:05;;;;;;;;;46.00;36.00;;;;;11.57;100.00;103362.72;5025014;28;45483;-85
2021/12/16 11:04:43;;;;;;;;;44.00;35.67;;;;;11.55;100.00;103363.66;5018767;28;45313;-84
2021/12/16 11:07:24;;;;;;;;;45.00;38.33;;;;;11.53;100.00;103362.84;5018294;28;45269;-84
2021/12/16 11:09:59;;;;;;;;;43.33;36.00;;;;;11.51;100.00;103373.53;5018256;28;45574;-84
2021/12/16 11:12:27;;;;;;;;;42.33;34.67;;;;;11.51;100.00;103368.22;5011258;28;45218;-86
2021/12/16 11:15:24;;;;;;;;;45.00;35.50;;;;;11.59;100.00;103366.19;5017915;28;45207;-85
2021/12/16 11:18:11;;;;;;;;;40.33;35.00;;;;;11.59;100.00;103370.66;5019543;28;45375;-87
2021/12/16 11:20:48;;;;;;;;;40.00;32.33;;;;;11.64;100.00;103368.72;5022128;28;45326;-86
2021/12/16 11:23:24;;;;;;;;;37.33;32.67;;;;;11.67;100.00;103370.44;5022082;28;45456;-85
2021/12/16 11:25:55;;;;;;;;;35.33;31.67;;;;;11.72;100.00;103365.84;5023459;28;44967;-84
2021/12/16 11:28:31;;;;;;;;;45.33;35.00;;;;;11.74;100.00;103362.19;5016016;28;44746;-85
2021/12/16 11:31:11;;;;;;;;;37.67;32.00;;;;;11.68;100.00;103373.03;5017362;28;44841;-84
2021/12/16 11:33:40;;;;;;;;;32.00;29.67;;;;;11.68;100.00;103366.84;5017740;28;45404;-84
2021/12/16 11:36:08;;;;;;;;;34.67;30.67;;;;;11.69;100.00;103372.13;5017304;28;45367;-84
2021/12/16 11:38:42;;;;;;;;;36.33;32.33;;;;;11.77;100.00;103359.47;5020707;28;44839;-85
2021/12/16 11:41:16;;;;;;;;;32.67;30.67;;;;;11.76;100.00;103357.72;5023646;28;45598;-84
2021/12/16 11:43:51;;;;;;;;;41.33;35.00;;;;;11.75;100.00;103358.66;5024242;28;45470;-84
2021/12/16 11:46:31;;;;;;;;;45.67;35.67;;;;;11.74;100.00;103364.00;5022303;28;45328;-84
2021/12/16 11:49:02;;;;;;;;;37.67;34.67;;;;;11.78;100.00;103361.19;5019818;28;45209;-86
2021/12/16 11:51:39;;;;;;;;;38.67;32.00;;;;;11.80;100.00;103358.50;5015869;28;45298;-85
2021/12/16 11:54:14;;;;;;;;;37.00;34.00;;;;;11.85;100.00;103353.06;5036124;28;47333;-85
2021/12/16 11:57:13;;;;;;;;;35.67;29.67;;;;;11.82;100.00;103349.56;5020524;28;45366;-84
2021/12/16 11:59:50;;;;;;;;;43.67;36.00;;;;;11.85;100.00;103353.94;5018299;28;45125;-89
2021/12/16 12:02:44;;;;;;;;;43.00;35.50;;;;;11.91;100.00;103355.53;5030264;28;45403;-88
2021/12/16 12:05:28;;;;;;;;;43.33;37.00;;;;;11.91;100.00;103345.75;5021891;28;46055;-89
2021/12/16 12:08:03;;;;;;;;;44.25;35.00;;;;;11.92;100.00;103344.84;5021113;28;44734;-87
2021/12/16 12:10:39;;;;;;;;;37.50;32.75;;;;;11.98;100.00;103349.97;5023212;28;44698;-87
2021/12/16 12:13:09;;;;;;;;;37.33;30.33;;;;;11.97;100.00;103353.56;5024901;28;45454;-85
2021/12/16 12:16:01;;;;;;;;;43.67;36.00;;;;;12.00;100.00;103352.59;5030165;28;45056;-85
2021/12/16 12:18:29;;;;;;;;;29.00;26.33;;;;;11.95;100.00;103338.56;5022422;28;45339;-84
2021/12/16 12:21:22;;;;;;;;;40.00;35.25;;;;;11.96;100.00;103342.97;5025352;28;45326;-84
2021/12/16 12:23:52;;;;;;;;;39.50;35.25;;;;;11.99;100.00;103333.09;5020237;28;45481;-88
2021/12/16 12:26:20;;;;;;;;;40.25;32.00;;;;;12.03;100.00;103344.50;5037813;28;47395;-88
2021/12/16 12:28:48;;;;;;;;;42.50;33.25;;;;;12.05;100.00;103334.69;5028411;28;44801;-89
2021/12/16 12:31:16;;;;;;;;;39.25;33.00;;;;;12.04;100.00;103335.59;5045010;28;45249;-90
2021/12/16 12:33:42;;;;;;;;;38.00;32.00;;;;;12.06;100.00;103339.09;5023699;28;44898;-87
2021/12/16 12:36:08;;;;;;;;;37.00;34.00;;;;;12.06;100.00;103326.63;5024851;28;45255;-86
2021/12/16 12:38:36;;;;;;;;;39.67;34.00;;;;;12.07;100.00;103331.03;5025194;28;44665;-85
2021/12/16 12:41:03;;;;;;;;;45.67;38.00;;;;;12.07;100.00;103336.34;5026243;28;44854;-86
2021/12/16 12:43:29;;;;;;;;;42.00;35.00;;;;;12.04;100.00;103335.59;5024042;28;44885;-87
2021/12/16 12:45:56;;;;;;;;;37.67;33.67;;;;;12.03;100.00;103324.03;5026387;28;45704;-90
2021/12/16 12:48:22;;;;;;;;;48.67;38.33;;;;;12.04;100.00;103323.16;5028079;28;44777;-90
2021/12/16 12:50:53;;;;;;;;;42.00;35.67;;;;;12.07;100.00;103322.16;5025236;28;45462;-88
2021/12/16 12:53:26;;;;;;;;;44.33;36.00;;;;;12.13;100.00;103321.09;5025048;28;44864;-86
2021/12/16 12:55:56;;;;;;;;;50.00;37.00;;;;;12.11;100.00;103320.28;5024287;28;45251;-88
2021/12/16 12:58:25;;;;;;;;;40.33;35.00;;;;;12.08;100.00;103318.56;5021501;28;45213;-90
2021/12/16 13:00:53;;;;;;;;;38.67;31.67;;;;;12.05;100.00;103310.69;5020856;28;44798;-87
2021/12/16 13:03:36;;;;;;;;;43.25;33.50;;;;;12.04;100.00;103325.81;5016149;28;45582;-87
2021/12/16 13:06:04;;;;;;;;;44.33;37.00;;;;;12.05;100.00;103318.69;5020172;28;46993;-87
2021/12/16 13:08:34;;;;;;;;;39.00;33.25;;;;;12.11;100.00;103322.94;5019179;28;44805;-86
2021/12/16 13:11:04;;;;;;;;;44.00;36.00;;;;;12.13;100.00;103323.75;5019626;28;44842;-87
2021/12/16 13:13:35;;;;;;;;;39.67;34.00;;;;;12.06;100.00;103309.78;5026797;28;44856;-86
2021/12/16 13:27:46;;;;;;;;;37.25;32.00;;;;;12.03;100.00;103312.53;5018198;28;45889;-86
2021/12/16 13:30:26;;;;;;;;;44.33;33.67;;;;;12.04;100.00;103307.16;5015987;28;45225;-84
2021/12/16 13:33:24;;;;;;;;;36.75;32.25;;;;;12.06;100.00;103301.78;5011793;28;44767;-86
2021/12/16 13:36:03;;;;;;;;;48.00;38.00;;;;;12.06;100.00;103296.44;5017754;28;45432;-84
2021/12/16 13:38:39;;;;;;;;;39.25;33.00;;;;;12.05;100.00;103294.72;5018992;28;45169;-88
2021/12/16 13:41:11;;;;;;;;;34.50;28.75;;;;;11.99;100.00;103297.56;5019682;28;44718;-88
2021/12/16 13:43:38;;;;;;;;;36.25;33.00;;;;;11.97;100.00;103296.75;5017131;28;44800;-87
2021/12/16 14:03:20;;;;;;;;;34.00;30.25;;;;;11.86;100.00;103302.41;5036853;28;44714;-89
2021/12/16 14:08:31;;;;;;;;;35.25;30.25;;;;;11.83;100.00;103295.38;5051345;28;44744;-88
2021/12/16 14:11:00;;;;;;;;;36.00;30.33;;;;;11.79;100.00;103291.03;5040017;28;45439;-87
2021/12/16 14:16:13;;;;;;;;;31.00;29.50;;;;;11.82;100.00;103293.63;5042454;28;44859;-86
2021/12/16 14:45:08;;;;;;;;;31.25;29.75;;;;;11.76;100.00;103296.47;4961629;28;45528;-87
2021/12/16 14:47:01;;;;;;;;;27.50;25.75;;;;;11.70;100.00;103306.41;4965406;28;45390;-85
2021/12/16 14:49:32;;;;;;;;;35.00;30.50;;;;;11.69;100.00;103305.53;4963389;28;44757;-85
2021/12/16 14:51:58;;;;;;;;;33.75;31.00;;;;;11.68;100.00;103313.59;4965428;28;45504;-86
2021/12/16 14:54:24;;;;;;;;;32.00;29.75;;;;;11.68;100.00;103305.59;4966140;28;45006;-88
2021/12/16 14:56:49;;;;;;;;;36.75;30.50;;;;;11.67;100.00;103317.19;4966373;28;44887;-86
2021/12/16 14:59:18;;;;;;;;;28.00;27.50;;;;;11.65;100.00;103313.66;5008457;28;45589;-86
2021/12/16 15:01:53;;;;;;;;;29.25;28.75;;;;;11.64;100.00;103311.94;5023036;28;44959;-86
2021/12/16 15:04:24;;;;;;;;;42.00;33.00;;;;;11.65;100.00;103309.22;5026227;28;45228;-87